首页
METAR-TAF:

METAR-TAF

机场 :

馬勒庫拉島, 瓦努阿图

纬度: 16-27-26S, 经度: 167-49-42E, 海拔: 2米

METAR: 丢失

时间: 08:32 (21:32 UTC)

预报

该预报发布于4小时和32分钟前的17:00 UTC
预报有效从15日的 18点(UTC)到 16日的 18点(UTC)
风速2节,风向多变
能见度10公里或以上
散云层高于2000英尺
几率 40%
在之间 IN和TE点(UTC)
能見度: 9000
多云层高于1800英尺
小阵雨,

TAF: NVSL 151700Z 1518/1618 VRB02KT 9999 SCT020 PROB40 INTER 1518/1524 9000 -SHRA BKN018

超过4000个机场的气象观测和天气预报(METAR&TAF报告)。

可查询的气象台以黄色和红色小点在地图上表示。

将鼠标移到小点上方,可查看气象台名称。

然后点击查看天气观测和预报。

如需切换地图:点击带黑十字的绿色按钮放大地图;点击带横线的绿色按钮缩小地图;或者点击绿色箭头查看邻近地区的地图。


METAR-TAF: